Time;durP1;ratioP1;P1;durP2;ratioP2;P2;SDS_P1;SDS_P2;PMS_P1;PMS_P2;Temp;Humidity;BMP_temperature;BMP_pressure;BME280_temperature;BME280_humidity;BME280_pressure;Samples;Min_cycle;Max_cycle;Signal;HPM_P1;HPM_P2
2022/01/28 00:02:02;;;;;;;;;;;;;;;;;;;;;
2022/01/28 00:05:42;;;;;;;;;;;;;;;6.48;59.48;100042.84;4409710;32;34516;-84
2022/01/28 00:08:34;;;;;;;;;;;;;;;6.29;60.26;100042.50;4424040;32;32252;-85
2022/01/28 00:39:23;;;;;;;;;;;;;;;5.82;61.91;100060.06;4414460;32;36106;-84
2022/01/28 00:43:06;;;;;;;;;;;;;;;;;;;;;
2022/01/28 00:45:56;;;;;;;;;;;;;;;5.46;63.78;100053.84;4433020;32;33072;-84
2022/01/28 00:49:01;;;;;;;;;;;;;;;5.54;63.62;100061.13;4451142;32;35950;-84
2022/01/28 00:52:58;;;;;;;;;;;;;;;5.29;64.45;100065.53;4418798;32;34230;-84
2022/01/28 01:05:35;;;;;;;;;;;;;;;;;;;;;
2022/01/28 01:08:34;;;;;;;;;;;;;;;5.33;64.33;100037.16;4391950;32;35066;-84
2022/01/28 01:14:42;;;;;;;;;;;;;;;5.35;64.31;100035.28;4376696;32;34619;-84
2022/01/28 01:21:13;;;;;;;;;;;;;;;5.34;64.31;100029.16;4391362;32;33181;-84
2022/01/28 01:30:30;;;;;;;;;;;;;;;4.83;66.25;100021.31;4417808;32;35713;-84
2022/01/28 01:34:00;;;;;;;;;;;;;;;4.91;66.07;100024.28;4402865;32;33492;-84
2022/01/28 01:37:06;;;;;;;;;;;;;;;5.08;65.53;100022.19;4450102;32;33911;-85
2022/01/28 01:44:03;;;;;;;;;;;;;;;4.94;66.29;100011.75;4372463;32;33876;-85
2022/01/28 01:54:06;;;;;;;;;;;;;;;5.20;64.99;100002.87;4368688;32;34862;-84
2022/01/28 02:03:24;;;;;;;;;;;;;;;5.47;64.13;100004.44;4358401;32;33979;-83
2022/01/28 02:05:59;;;;;;;;;;;;;;;5.21;64.91;100006.37;4374099;32;34176;-84
2022/01/28 02:18:55;;;;;;;;;;;;;;;5.07;65.26;100011.75;4395618;32;34200;-84
2022/01/28 02:34:40;;;;;;;;;;;;;;;5.04;64.83;100012.81;4434019;32;35907;-84
2022/01/28 02:37:25;;;;;;;;;;;;;;;;;;;;;
2022/01/28 02:40:22;;;;;;;;;;;;;;;4.95;65.15;100005.53;4435477;32;34105;-84
2022/01/28 02:46:14;;;;;;;;;;;;;;;5.41;63.57;100009.31;4421432;32;34457;-84
2022/01/28 02:53:00;;;;;;;;;;;;;;;;;;;;;
2022/01/28 02:59:33;;;;;;;;;;;;;;;5.46;63.00;100001.91;4431999;32;34175;-84
2022/01/28 03:09:48;;;;;;;;;;;;;;;5.38;63.19;100022.69;4435658;32;34600;-85
2022/01/28 03:15:20;;;;;;;;;;;;;;;5.26;63.65;100035.91;4431815;32;35577;-84
2022/01/28 03:24:42;;;;;;;;;;;;;;;5.31;63.24;100031.16;4378310;32;36287;-85
2022/01/28 03:28:58;;;;;;;;;;;;;;;5.55;62.77;100035.56;4395348;32;35161;-84
2022/01/28 03:32:09;;;;;;;;;;;;;;;5.45;63.13;100041.63;4401838;32;33781;-86
2022/01/28 03:34:57;;;;;;;;;;;;;;;;;;;;;
2022/01/28 03:44:10;;;;;;;;;;;;;;;;;;;;;
2022/01/28 03:47:02;;;;;;;;;;;;;;;5.71;62.33;100044.94;4349904;32;34073;-83
2022/01/28 03:57:13;;;;;;;;;;;;;;;5.87;61.84;100048.22;4330225;32;34106;-83
2022/01/28 04:03:47;;;;;;;;;;;;;;;5.74;61.79;100041.25;4299102;33;35169;-84
2022/01/28 04:14:39;;;;;;;;;;;;;;;6.09;60.39;100052.81;4299281;33;32752;-85
2022/01/28 04:35:07;;;;;;;;;;;;;;;6.00;59.05;100042.91;4299623;33;34295;-85
2022/01/28 04:37:58;;;;;;;;;;;;;;;6.07;58.70;100049.44;4291615;33;34321;-85
2022/01/28 04:44:08;;;;;;;;;;;;;;;5.49;60.22;100046.56;4317671;33;34113;-84
2022/01/28 04:57:03;;;;;;;;;;;;;;;5.32;61.04;100059.22;4315586;33;34855;-87
2022/01/28 05:34:47;;;;;;;;;;;;;;;5.09;60.61;100054.69;4342028;33;35977;-85
2022/01/28 05:38:27;;;;;;;;;;;;;;;5.26;59.96;100059.66;4330751;33;33053;-85
2022/01/28 05:40:51;;;;;;;;;;;;;;;5.29;59.47;100051.53;4424307;26;33188;-80
2022/01/28 05:43:19;;;;;;;;;;;;;;;5.18;59.83;100046.16;4444395;32;34297;-80
2022/01/28 05:45:46;;;;;;;;;;;;;;;5.22;59.75;100048.47;4443857;32;35091;-83
2022/01/28 05:48:16;;;;;;;;;;;;;;;5.47;59.23;100044.97;4444631;32;34481;-79
2022/01/28 05:50:44;;;;;;;;;;;;;;;5.32;59.46;100053.94;4445501;32;33425;-79
2022/01/28 05:53:11;;;;;;;;;;;;;;;5.41;59.43;100055.94;4446080;32;33756;-81
2022/01/28 05:55:39;;;;;;;;;;;;;;;5.34;59.76;100052.03;4416605;32;35411;-83
2022/01/28 05:58:07;;;;;;;;;;;;;;;5.24;60.16;100056.25;4430940;32;35143;-86
2022/01/28 06:00:34;;;;;;;;;;;;;;;5.51;59.56;100047.31;4430444;32;34104;-80
2022/01/28 06:03:02;;;;;;;;;;;;;;;5.53;59.59;100070.00;4405068;32;33266;-82
2022/01/28 06:05:30;;;;;;;;;;;;;;;5.46;59.60;100073.16;4429297;32;34715;-81
2022/01/28 06:07:58;;;;;;;;;;;;;;;5.50;59.40;100070.19;4441941;32;35356;-80
2022/01/28 06:10:25;;;;;;;;;;;;;;;5.54;59.42;100076.09;4429573;32;34318;-82
2022/01/28 06:12:53;;;;;;;;;;;;;;;5.72;59.16;100088.03;4429647;32;33008;-81
2022/01/28 06:15:20;;;;;;;;;;;;;;;5.77;58.89;100078.00;4429473;32;35086;-81
2022/01/28 06:17:47;;;;;;;;;;;;;;;5.71;59.15;100088.97;4429584;32;35446;-81
2022/01/28 06:20:19;;;;;;;;;;;;;;;5.85;58.54;100096.78;4443798;32;33365;-79
2022/01/28 06:22:46;;;;;;;;;;;;;;;6.00;58.31;100101.00;4443862;32;34180;-83
2022/01/28 06:25:14;;;;;;;;;;;;;;;5.93;58.39;100116.44;4429767;32;34772;-81
2022/01/28 06:27:41;;;;;;;;;;;;;;;5.89;58.26;100108.84;4445146;32;34381;-79
2022/01/28 06:30:09;;;;;;;;;;;;;;;5.75;58.59;100090.44;4445229;32;33516;-82
2022/01/28 06:32:37;;;;;;;;;;;;;;;5.70;58.35;100097.84;4445108;32;33645;-81
2022/01/28 06:35:08;;;;;;;;;;;;;;;5.70;58.43;100096.03;4430569;32;34853;-80
2022/01/28 06:37:36;;;;;;;;;;;;;;;5.57;58.52;100104.91;4431085;32;35140;-81
2022/01/28 06:40:14;;;;;;;;;;;;;;;5.54;58.10;100106.00;4415835;32;32286;-83
2022/01/28 06:42:42;;;;;;;;;;;;;;;5.42;58.43;100105.13;4428711;32;33961;-82
2022/01/28 06:45:09;;;;;;;;;;;;;;;5.50;57.95;100114.22;4445459;32;35209;-82
2022/01/28 06:47:37;;;;;;;;;;;;;;;5.63;57.81;100108.00;4430822;32;35031;-82
2022/01/28 06:50:05;;;;;;;;;;;;;;;5.86;56.98;100106.44;4430277;32;31645;-83
2022/01/28 06:52:33;;;;;;;;;;;;;;;5.90;56.79;100097.34;4432004;32;33824;-80
2022/01/28 06:55:03;;;;;;;;;;;;;;;5.76;56.92;100119.38;4424795;32;35474;-83
2022/01/28 06:57:30;;;;;;;;;;;;;;;5.83;56.16;100133.03;4443552;32;34814;-83
2022/01/28 06:59:58;;;;;;;;;;;;;;;5.82;56.11;100137.47;4443862;32;33397;-80
2022/01/28 07:02:26;;;;;;;;;;;;;;;5.88;56.12;100138.84;4429205;32;34335;-81
2022/01/28 07:04:53;;;;;;;;;;;;;;;5.61;56.76;100157.38;4429741;32;34502;-79
2022/01/28 07:07:23;;;;;;;;;;;;;;;5.91;56.46;100147.41;4443453;32;34069;-84
2022/01/28 07:09:50;;;;;;;;;;;;;;;5.98;56.07;100148.66;4429555;32;33223;-83
2022/01/28 07:12:18;;;;;;;;;;;;;;;6.21;55.79;100147.88;4442047;32;34152;-82
2022/01/28 07:14:46;;;;;;;;;;;;;;;6.04;56.00;100155.28;4409963;32;35351;-84
2022/01/28 07:17:13;;;;;;;;;;;;;;;6.15;55.76;100163.34;4429153;32;33890;-85
2022/01/28 07:19:40;;;;;;;;;;;;;;;6.37;55.46;100166.13;4428870;32;32309;-85
2022/01/28 07:22:08;;;;;;;;;;;;;;;6.18;55.78;100166.59;4441489;32;33948;-84
2022/01/28 07:24:35;;;;;;;;;;;;;;;6.22;55.48;100157.50;4427527;32;35231;-81
2022/01/28 07:27:02;;;;;;;;;;;;;;;6.22;55.44;100149.56;4424843;32;34668;-84
2022/01/28 07:29:35;;;;;;;;;;;;;;;6.20;55.47;100151.50;4429746;32;32945;-81
2022/01/28 07:32:03;;;;;;;;;;;;;;;6.30;54.33;100139.31;4443495;32;34817;-82
2022/01/28 07:34:31;;;;;;;;;;;;;;;6.53;53.72;100138.50;4443231;32;35288;-81
2022/01/28 07:36:58;;;;;;;;;;;;;;;6.30;53.39;100141.09;4429143;32;34434;-84
2022/01/28 07:39:27;;;;;;;;;;;;;;;6.61;52.80;100157.28;4428679;32;33098;-81
2022/01/28 07:41:54;;;;;;;;;;;;;;;6.33;52.95;100152.28;4438404;32;35224;-83
2022/01/28 07:44:22;;;;;;;;;;;;;;;6.70;52.40;100161.91;4428955;32;35423;-81
2022/01/28 07:46:49;;;;;;;;;;;;;;;6.88;51.02;100171.16;4441545;32;34186;-82
2022/01/28 07:49:17;;;;;;;;;;;;;;;6.78;51.48;100182.50;4441524;32;33578;-84
2022/01/28 07:51:44;;;;;;;;;;;;;;;6.45;51.58;100183.13;4441600;32;33424;-83
2022/01/28 07:54:11;;;;;;;;;;;;;;;6.90;50.60;100181.62;4441302;32;34712;-82
2022/01/28 07:56:38;;;;;;;;;;;;;;;6.71;50.85;100179.47;4441846;32;34406;-83
2022/01/28 07:59:06;;;;;;;;;;;;;;;7.14;49.97;100185.97;4441241;32;33455;-81
2022/01/28 08:01:34;;;;;;;;;;;;;;;7.04;49.25;100186.75;4440815;32;33285;-82
2022/01/28 08:04:02;;;;;;;;;;;;;;;6.97;49.78;100175.78;4441733;32;34303;-83
2022/01/28 08:06:30;;;;;;;;;;;;;;;7.00;49.00;100178.19;4441433;32;34944;-82
2022/01/28 08:08:59;;;;;;;;;;;;;;;6.68;50.02;100174.41;4441109;32;33480;-81
2022/01/28 08:11:26;;;;;;;;;;;;;;;6.90;49.93;100156.00;4442865;32;34671;-81
2022/01/28 08:13:55;;;;;;;;;;;;;;;6.97;49.85;100175.78;4445591;32;35769;-83
2022/01/28 08:16:22;;;;;;;;;;;;;;;6.94;49.91;100172.50;4442869;32;34436;-81
2022/01/28 08:18:50;;;;;;;;;;;;;;;6.73;49.15;100182.84;4443346;32;32892;-82
2022/01/28 08:21:17;;;;;;;;;;;;;;;6.89;48.99;100188.69;4444607;32;33737;-82
2022/01/28 08:23:44;;;;;;;;;;;;;;;7.00;48.52;100193.22;4444502;32;35629;-84
2022/01/28 08:26:13;;;;;;;;;;;;;;;7.18;47.89;100195.34;4444423;32;35384;-84
2022/01/28 08:28:41;;;;;;;;;;;;;;;7.31;46.77;100198.78;4445203;32;32650;-80
2022/01/28 08:31:09;;;;;;;;;;;;;;;7.27;47.18;100199.13;4443912;32;34345;-80
2022/01/28 08:33:36;;;;;;;;;;;;;;;7.50;45.87;100188.50;4445235;32;35854;-83
2022/01/28 08:36:04;;;;;;;;;;;;;;;7.40;45.44;100187.50;4444194;32;34387;-84
2022/01/28 08:38:37;;;;;;;;;;;;;;;7.78;44.90;100193.41;4444124;32;32814;-81
2022/01/28 08:41:05;;;;;;;;;;;;;;;7.58;45.47;100185.28;4440875;32;33712;-81
2022/01/28 08:43:33;;;;;;;;;;;;;;;7.66;45.46;100182.91;4430926;32;35127;-81
2022/01/28 08:46:00;;;;;;;;;;;;;;;7.69;45.09;100191.44;4444270;32;34718;-83
2022/01/28 08:48:27;;;;;;;;;;;;;;;7.42;44.53;100179.44;4443872;32;32944;-81
2022/01/28 08:50:55;;;;;;;;;;;;;;;7.65;44.24;100189.97;4445622;32;34506;-85
2022/01/28 08:53:22;;;;;;;;;;;;;;;7.48;44.26;100192.22;4443766;32;35110;-81
2022/01/28 08:55:50;;;;;;;;;;;;;;;7.26;44.84;100219.44;4445567;32;34659;-83
2022/01/28 08:58:22;;;;;;;;;;;;;;;7.59;44.36;100189.59;4443940;32;33428;-83
2022/01/28 09:00:50;;;;;;;;;;;;;;;7.67;44.17;100185.44;4444524;32;34209;-83
2022/01/28 09:03:19;;;;;;;;;;;;;;;7.25;45.05;100190.44;4445521;32;34304;-83
2022/01/28 09:05:46;;;;;;;;;;;;;;;7.65;44.54;100191.81;4443868;32;34249;-83
2022/01/28 09:08:14;;;;;;;;;;;;;;;7.49;45.26;100199.19;4444155;32;33394;-82
2022/01/28 09:10:44;;;;;;;;;;;;;;;7.71;45.89;100208.06;4443767;32;34883;-84
2022/01/28 09:13:26;;;;;;;;;;;;;;;7.95;45.69;100182.34;4444710;32;35186;-84
2022/01/28 09:15:55;;;;;;;;;;;;;;;8.02;45.83;100195.97;4445604;32;34853;-83
2022/01/28 09:18:23;;;;;;;;;;;;;;;7.91;46.15;100222.44;4444969;32;32749;-84
2022/01/28 09:20:50;;;;;;;;;;;;;;;8.01;45.81;100213.66;4443331;32;33838;-87
2022/01/28 09:23:18;;;;;;;;;;;;;;;8.05;46.14;100208.97;4417348;32;33539;-83
2022/01/28 09:25:46;;;;;;;;;;;;;;;7.72;46.04;100209.75;4443767;32;33881;-86
2022/01/28 09:28:14;;;;;;;;;;;;;;;8.28;45.17;100219.50;4443032;32;33791;-83
2022/01/28 09:30:41;;;;;;;;;;;;;;;8.26;45.34;100228.53;4430364;32;34776;-82
2022/01/28 09:33:09;;;;;;;;;;;;;;;8.11;44.74;100225.22;4444658;32;35352;-80
2022/01/28 09:35:37;;;;;;;;;;;;;;;8.23;45.03;100231.44;4429965;32;34354;-79
2022/01/28 09:38:04;;;;;;;;;;;;;;;8.54;43.62;100235.03;4444516;32;33301;-80
2022/01/28 09:40:32;;;;;;;;;;;;;;;8.15;44.29;100234.66;4442926;32;34547;-81
2022/01/28 09:43:01;;;;;;;;;;;;;;;7.83;44.65;100223.00;4444671;32;34631;-80
2022/01/28 09:45:28;;;;;;;;;;;;;;;7.84;45.10;100222.03;4444776;32;33913;-83
2022/01/28 09:47:56;;;;;;;;;;;;;;;7.81;43.91;100232.88;4430488;32;34060;-79
2022/01/28 09:50:24;;;;;;;;;;;;;;;8.07;44.12;100205.25;4430484;32;34847;-82
2022/01/28 09:52:53;;;;;;;;;;;;;;;7.92;44.37;100217.00;4430389;32;37226;-82
2022/01/28 09:55:21;;;;;;;;;;;;;;;8.23;43.93;100216.37;4430853;32;34207;-81
2022/01/28 09:57:51;;;;;;;;;;;;;;;8.29;43.66;100215.06;4444273;32;32657;-83
2022/01/28 10:00:22;;;;;;;;;;;;;;;8.32;43.15;100226.28;4430645;32;34891;-83
2022/01/28 10:02:51;;;;;;;;;;;;;;;8.10;42.64;100236.78;4409345;32;33943;-82
2022/01/28 10:05:20;;;;;;;;;;;;;;;8.22;42.62;100222.63;4444820;32;34095;-80
2022/01/28 10:08:06;;;;;;;;;;;;;;;8.18;43.26;100225.59;4417400;32;34118;-81
2022/01/28 10:10:49;;;;;;;;;;;;;;;8.67;41.43;100225.16;4444696;32;34099;-82
2022/01/28 10:13:20;;;;;;;;;;;;;;;8.79;40.87;100213.56;4430570;32;34915;-83
2022/01/28 10:15:51;;;;;;;;;;;;;;;9.21;40.72;100218.06;4444458;32;36708;-81
2022/01/28 10:18:19;;;;;;;;;;;;;;;9.22;40.18;100217.09;4444610;32;34907;-80
2022/01/28 10:20:46;;;;;;;;;;;;;;;9.00;39.98;100216.31;4430198;32;34584;-83
2022/01/28 10:23:14;;;;;;;;;;;;;;;8.48;39.80;100233.87;4430263;32;36547;-80
2022/01/28 10:25:42;;;;;;;;;;;;;;;8.53;40.04;100209.50;4430349;32;34421;-81
2022/01/28 10:28:11;;;;;;;;;;;;;;;8.89;39.31;100209.22;4430436;32;33508;-82
2022/01/28 10:30:43;;;;;;;;;;;;;;;8.86;39.97;100203.31;4430911;32;34863;-82
2022/01/28 10:33:22;;;;;;;;;;;;;;;8.88;39.02;100188.12;4443963;32;34825;-81
2022/01/28 10:35:51;;;;;;;;;;;;;;;8.77;39.88;100204.91;4444236;32;34723;-85
2022/01/28 10:38:35;;;;;;;;;;;;;;;8.91;39.54;100185.22;4430375;32;32630;-85
2022/01/28 10:41:09;;;;;;;;;;;;;;;9.03;39.28;100185.06;4444607;32;34114;-81
2022/01/28 10:43:47;;;;;;;;;;;;;;;9.02;39.26;100175.44;4429792;32;33471;-83
2022/01/28 10:46:22;;;;;;;;;;;;;;;9.29;38.86;100173.16;4429260;32;34641;-82
2022/01/28 10:48:54;;;;;;;;;;;;;;;9.31;39.17;100160.59;4429185;32;31979;-82
2022/01/28 10:51:22;;;;;;;;;;;;;;;9.22;39.03;100179.09;4417990;32;33434;-82
2022/01/28 10:54:10;;;;;;;;;;;;;;;8.95;39.89;100184.84;4432705;32;35791;-85
2022/01/28 10:56:50;;;;;;;;;;;;;;;8.70;40.74;100189.63;4444048;32;34955;-82
2022/01/28 10:59:18;;;;;;;;;;;;;;;9.16;39.88;100179.59;4444375;32;33831;-81
2022/01/28 11:01:46;;;;;;;;;;;;;;;9.00;40.50;100195.09;4416985;32;34473;-82
2022/01/28 11:04:15;;;;;;;;;;;;;;;9.07;40.38;100236.09;4429774;32;34664;-82
2022/01/28 11:06:42;;;;;;;;;;;;;;;9.48;40.74;100178.63;4444338;32;34497;-85
2022/01/28 11:09:11;;;;;;;;;;;;;;;9.74;40.36;100184.41;4444364;32;32974;-83
2022/01/28 11:11:38;;;;;;;;;;;;;;;9.20;41.44;100189.84;4429915;32;34248;-88
2022/01/28 11:14:06;;;;;;;;;;;;;;;9.45;40.50;100200.09;4417097;32;35859;-86
2022/01/28 11:16:34;;;;;;;;;;;;;;;8.83;41.45;100232.75;4443195;32;35179;-83
2022/01/28 11:19:01;;;;;;;;;;;;;;;8.53;42.55;100204.19;4416240;32;32684;-85
2022/01/28 11:21:44;;;;;;;;;;;;;;;8.38;42.99;100223.13;4428998;32;34824;-84
2022/01/28 11:24:16;;;;;;;;;;;;;;;8.27;43.39;100220.47;4416191;32;34983;-84
2022/01/28 11:26:55;;;;;;;;;;;;;;;8.44;43.16;100239.38;4426702;32;34983;-83
2022/01/28 11:29:26;;;;;;;;;;;;;;;8.54;43.10;100244.81;4427355;32;33199;-86
2022/01/28 11:31:58;;;;;;;;;;;;;;;8.57;43.50;100241.94;4443132;32;34610;-87
2022/01/28 11:34:29;;;;;;;;;;;;;;;8.54;42.69;100245.66;4444099;32;35086;-86
2022/01/28 11:36:57;;;;;;;;;;;;;;;8.35;43.33;100255.19;4430294;32;34131;-83
2022/01/28 11:39:32;;;;;;;;;;;;;;;8.39;42.81;100242.53;4443551;32;34799;-85
2022/01/28 11:42:04;;;;;;;;;;;;;;;8.48;42.26;100248.81;4437792;32;33654;-83
2022/01/28 11:44:42;;;;;;;;;;;;;;;8.18;43.05;100265.34;4455331;32;34019;-85
2022/01/28 11:47:20;;;;;;;;;;;;;;;8.09;43.20;100242.22;4437477;32;32920;-86
2022/01/28 11:49:59;;;;;;;;;;;;;;;7.92;44.24;100240.84;4454024;32;32728;-84
2022/01/28 11:52:31;;;;;;;;;;;;;;;7.82;44.51;100239.88;4442001;32;33768;-81
2022/01/28 11:55:14;;;;;;;;;;;;;;;7.77;44.48;100243.81;4417442;32;34955;-86
2022/01/28 11:58:02;;;;;;;;;;;;;;;7.83;44.42;100235.44;4440854;32;33307;-84
2022/01/28 12:00:47;;;;;;;;;;;;;;;7.71;45.29;100234.53;4439471;32;32094;-84
2022/01/28 12:03:17;;;;;;;;;;;;;;;7.31;45.62;100240.28;4438121;32;33257;-83
2022/01/28 12:05:44;;;;;;;;;;;;;;;7.63;45.51;100233.44;4442587;32;34621;-83
2022/01/28 12:08:12;;;;;;;;;;;;;;;7.75;45.28;100243.94;4437438;32;33966;-83
2022/01/28 12:10:43;;;;;;;;;;;;;;;7.68;45.62;100244.50;4442674;32;33154;-86
2022/01/28 12:13:13;;;;;;;;;;;;;;;7.62;45.20;100232.59;4438497;32;33665;-82
2022/01/28 12:16:09;;;;;;;;;;;;;;;7.38;45.61;100244.16;4441457;32;35924;-83
2022/01/28 12:18:43;;;;;;;;;;;;;;;7.38;45.54;100242.34;4439547;32;33642;-86
2022/01/28 12:21:14;;;;;;;;;;;;;;;7.19;46.28;100254.41;4443794;32;33303;-82
2022/01/28 12:23:43;;;;;;;;;;;;;;;7.47;45.80;100256.72;4428704;32;33460;-82
2022/01/28 12:26:16;;;;;;;;;;;;;;;7.42;45.32;100264.13;4443006;32;35022;-85
2022/01/28 12:28:44;;;;;;;;;;;;;;;7.62;44.77;100256.41;4434988;32;32938;-85
2022/01/28 12:31:16;;;;;;;;;;;;;;;7.35;45.90;100255.81;4442703;32;32988;-86
2022/01/28 12:33:45;;;;;;;;;;;;;;;7.65;45.42;100255.34;4440655;32;33552;-85
2022/01/28 12:36:17;;;;;;;;;;;;;;;7.96;44.65;100266.16;4437356;32;34632;-85
2022/01/28 12:38:56;;;;;;;;;;;;;;;7.87;44.47;100263.34;4440449;32;33964;-84
2022/01/28 12:41:25;;;;;;;;;;;;;;;7.65;44.40;100263.28;4438125;32;33225;-85
2022/01/28 12:43:53;;;;;;;;;;;;;;;7.51;44.47;100261.66;4441817;32;33449;-82
2022/01/28 12:46:20;;;;;;;;;;;;;;;7.69;44.15;100268.25;4437802;32;35616;-85
2022/01/28 12:48:49;;;;;;;;;;;;;;;7.53;44.53;100270.34;4434324;32;34506;-86
2022/01/28 12:51:17;;;;;;;;;;;;;;;7.74;44.58;100278.50;4442126;32;33470;-85
2022/01/28 12:53:45;;;;;;;;;;;;;;;7.78;44.16;100286.09;4414994;32;34255;-85
2022/01/28 12:56:13;;;;;;;;;;;;;;;7.71;44.40;100284.00;4437675;32;35492;-83
2022/01/28 12:58:48;;;;;;;;;;;;;;;7.72;44.67;100285.72;4442615;32;34075;-86
2022/01/28 13:01:17;;;;;;;;;;;;;;;7.78;44.45;100293.19;4404842;32;31769;-84
2022/01/28 13:04:01;;;;;;;;;;;;;;;7.54;45.58;100289.72;4443643;32;34178;-86
2022/01/28 13:09:01;;;;;;;;;;;;;;;7.40;45.02;100293.38;4443662;32;34169;-84
2022/01/28 13:11:29;;;;;;;;;;;;;;;7.73;44.41;100292.69;4439140;32;32569;-82
2022/01/28 13:13:57;;;;;;;;;;;;;;;7.41;45.19;100299.50;4436034;32;34043;-83
2022/01/28 13:16:34;;;;;;;;;;;;;;;7.47;44.80;100299.91;4443638;32;35668;-84
2022/01/28 13:19:03;;;;;;;;;;;;;;;7.63;44.83;100302.28;4437816;32;35426;-85
2022/01/28 13:21:31;;;;;;;;;;;;;;;7.78;44.55;100293.19;4426925;32;31802;-86
2022/01/28 13:24:05;;;;;;;;;;;;;;;7.42;45.36;100294.13;4437526;32;33929;-86
2022/01/28 13:26:33;;;;;;;;;;;;;;;7.69;44.81;100283.28;4424230;32;34468;-85
2022/01/28 13:29:08;;;;;;;;;;;;;;;7.58;45.24;100297.34;4437647;32;34729;-86
2022/01/28 13:34:21;;;;;;;;;;;;;;;7.78;44.55;100288.75;4440064;32;34505;-87
2022/01/28 13:36:50;;;;;;;;;;;;;;;8.22;43.91;100293.34;4436755;32;34517;-84
2022/01/28 13:39:18;;;;;;;;;;;;;;;7.79;44.41;100286.94;4444308;32;35358;-82
2022/01/28 13:41:50;;;;;;;;;;;;;;;7.65;44.67;100266.75;4438145;32;34428;-83
2022/01/28 13:44:22;;;;;;;;;;;;;;;7.71;44.95;100273.41;4422010;32;33892;-85
2022/01/28 13:46:59;;;;;;;;;;;;;;;7.78;44.41;100275.50;4444351;32;36017;-84
2022/01/28 13:49:32;;;;;;;;;;;;;;;7.77;44.56;100265.00;4428486;32;34363;-84
2022/01/28 13:52:10;;;;;;;;;;;;;;;7.48;44.85;100282.22;4417887;32;31579;-84
2022/01/28 13:54:38;;;;;;;;;;;;;;;7.72;44.67;100275.94;4417371;32;32461;-86
2022/01/28 13:57:06;;;;;;;;;;;;;;;7.50;45.41;100281.16;4443209;32;34943;-82
2022/01/28 13:59:34;;;;;;;;;;;;;;;7.12;45.78;100272.53;4444349;32;34439;-85
2022/01/28 14:02:02;;;;;;;;;;;;;;;7.21;45.62;100276.31;4443967;32;33088;-83
2022/01/28 14:04:35;;;;;;;;;;;;;;;7.27;45.58;100273.22;4444161;32;34314;-85
2022/01/28 14:07:22;;;;;;;;;;;;;;;7.13;46.40;100282.16;4438372;32;33618;-85
2022/01/28 14:09:58;;;;;;;;;;;;;;;7.26;46.03;100298.00;4443507;32;34257;-85
2022/01/28 14:12:30;;;;;;;;;;;;;;;7.19;46.59;100299.41;4407603;32;873656;-88
2022/01/28 14:15:09;;;;;;;;;;;;;;;7.26;46.53;100304.13;4443050;32;34205;-84
2022/01/28 14:17:37;;;;;;;;;;;;;;;7.10;46.83;100311.47;4443433;32;35204;-85
2022/01/28 14:20:06;;;;;;;;;;;;;;;7.15;46.74;100308.50;4437943;32;34953;-82
2022/01/28 14:22:33;;;;;;;;;;;;;;;7.10;47.27;100311.47;4442233;32;32495;-84
2022/01/28 14:25:00;;;;;;;;;;;;;;;7.18;47.71;100319.69;4437305;32;32367;-85
2022/01/28 14:30:03;;;;;;;;;;;;;;;7.28;47.41;100331.31;4428444;32;33435;-83
2022/01/28 14:32:30;;;;;;;;;;;;;;;7.46;47.12;100334.44;4444002;32;32793;-83
2022/01/28 14:34:58;;;;;;;;;;;;;;;6.94;47.61;100337.34;4437188;32;33559;-86
2022/01/28 14:37:27;;;;;;;;;;;;;;;7.04;47.91;100342.81;4442004;32;34565;-83
2022/01/28 14:39:55;;;;;;;;;;;;;;;7.00;48.54;100347.47;4436721;32;34674;-86
2022/01/28 14:42:22;;;;;;;;;;;;;;;7.14;48.59;100346.50;4440679;32;33006;-83
2022/01/28 14:44:49;;;;;;;;;;;;;;;6.74;48.89;100355.56;4461875;32;32840;-83
2022/01/28 14:47:17;;;;;;;;;;;;;;;6.60;49.66;100353.03;4442182;32;35896;-83
2022/01/28 14:49:45;;;;;;;;;;;;;;;6.93;49.47;100354.16;4444206;32;34137;-88
2022/01/28 14:52:16;;;;;;;;;;;;;;;6.99;49.48;100345.78;4443561;32;32696;-85
2022/01/28 14:54:44;;;;;;;;;;;;;;;7.47;48.92;100354.66;4441809;32;33641;-85
2022/01/28 14:57:12;;;;;;;;;;;;;;;7.26;48.29;100349.09;4438145;32;34464;-83
2022/01/28 14:59:41;;;;;;;;;;;;;;;7.12;49.18;100354.56;4442962;32;34222;-84
2022/01/28 15:02:10;;;;;;;;;;;;;;;7.06;49.21;100351.47;4444299;32;33406;-86
2022/01/28 15:04:38;;;;;;;;;;;;;;;7.24;48.92;100351.03;4442134;32;34317;-84
2022/01/28 15:07:05;;;;;;;;;;;;;;;7.10;48.64;100351.16;4438297;32;36003;-86
2022/01/28 15:09:39;;;;;;;;;;;;;;;6.55;49.83;100371.84;4430067;32;32818;-85
2022/01/28 15:12:07;;;;;;;;;;;;;;;6.97;48.64;100362.72;4444573;32;33419;-84
2022/01/28 15:14:34;;;;;;;;;;;;;;;7.08;48.34;100374.22;4441371;32;34226;-87
2022/01/28 15:17:02;;;;;;;;;;;;;;;6.89;48.84;100383.59;4437774;32;33412;-83
2022/01/28 15:19:29;;;;;;;;;;;;;;;6.79;48.61;100385.19;4441518;32;33820;-84
2022/01/28 15:21:57;;;;;;;;;;;;;;;6.78;48.42;100380.81;4444191;32;34286;-84
2022/01/28 15:24:25;;;;;;;;;;;;;;;7.01;48.37;100390.66;4440627;32;33275;-85
2022/01/28 15:26:53;;;;;;;;;;;;;;;7.18;47.73;100383.22;4423579;32;33712;-88
2022/01/28 15:29:35;;;;;;;;;;;;;;;7.04;47.93;100393.94;4444228;32;35362;-87
2022/01/28 15:37:20;;;;;;;;;;;;;;;6.64;48.93;100388.88;4443726;32;34726;-82
2022/01/28 15:39:48;;;;;;;;;;;;;;;6.98;48.16;100385.59;4432836;32;32838;-83
2022/01/28 15:42:15;;;;;;;;;;;;;;;6.80;48.73;100398.28;4441868;32;33414;-86
2022/01/28 15:44:43;;;;;;;;;;;;;;;6.95;48.93;100397.22;4443069;32;33502;-85
2022/01/28 15:47:10;;;;;;;;;;;;;;;7.09;48.76;100393.59;4463722;32;35065;-85
2022/01/28 15:49:38;;;;;;;;;;;;;;;7.14;48.68;100394.13;4443457;32;34455;-85
2022/01/28 15:52:05;;;;;;;;;;;;;;;6.79;49.28;100403.69;4443852;32;33275;-83
2022/01/28 15:54:32;;;;;;;;;;;;;;;6.76;49.37;100406.53;4466309;32;34259;-84
2022/01/28 15:57:00;;;;;;;;;;;;;;;6.62;49.63;100406.63;4436408;32;37296;-85
2022/01/28 15:59:27;;;;;;;;;;;;;;;6.69;49.73;100411.38;4441691;32;34074;-86
2022/01/28 16:01:55;;;;;;;;;;;;;;;6.88;49.82;100392.47;4423310;32;33319;-85
2022/01/28 16:04:22;;;;;;;;;;;;;;;6.78;50.40;100407.25;4441244;32;34650;-82
2022/01/28 16:06:50;;;;;;;;;;;;;;;6.64;50.77;100399.44;4411219;32;33370;-82
2022/01/28 16:09:18;;;;;;;;;;;;;;;6.44;51.79;100397.31;4443317;32;34890;-86
2022/01/28 16:14:26;;;;;;;;;;;;;;;6.46;52.48;100390.13;4442649;32;34434;-85
2022/01/28 16:19:40;;;;;;;;;;;;;;;6.35;52.29;100377.62;4439293;32;34325;-86
2022/01/28 16:22:08;;;;;;;;;;;;;;;6.22;52.28;100371.50;4437829;32;33837;-84
2022/01/28 16:24:35;;;;;;;;;;;;;;;6.24;52.04;100374.03;4441008;32;33870;-86
2022/01/28 16:27:03;;;;;;;;;;;;;;;6.12;51.94;100378.34;4442114;32;34844;-86
2022/01/28 16:29:31;;;;;;;;;;;;;;;5.94;52.21;100376.91;4439742;32;34318;-83
2022/01/28 16:31:58;;;;;;;;;;;;;;;6.13;51.76;100387.09;4444892;32;31930;-82
2022/01/28 16:34:26;;;;;;;;;;;;;;;6.01;51.84;100385.28;4441732;32;34516;-82
2022/01/28 16:37:10;;;;;;;;;;;;;;;6.33;50.90;100384.81;4428217;32;33946;-83
2022/01/28 16:39:39;;;;;;;;;;;;;;;6.11;51.11;100391.62;4445118;32;35322;-83
2022/01/28 16:42:21;;;;;;;;;;;;;;;6.24;50.70;100396.00;4443340;32;33658;-84
2022/01/28 16:44:53;;;;;;;;;;;;;;;6.27;50.70;100395.81;4450119;32;34821;-83
2022/01/28 16:47:22;;;;;;;;;;;;;;;6.31;50.78;100404.34;4443990;32;35386;-85
2022/01/28 16:49:49;;;;;;;;;;;;;;;6.31;49.99;100391.16;4436148;32;34606;-83
2022/01/28 16:52:17;;;;;;;;;;;;;;;6.00;50.59;100397.66;4445103;32;32939;-85
2022/01/28 16:54:45;;;;;;;;;;;;;;;6.24;50.81;100398.66;4430014;32;34218;-85
2022/01/28 16:57:12;;;;;;;;;;;;;;;6.28;49.98;100417.78;4439129;32;34985;-83
2022/01/28 16:59:43;;;;;;;;;;;;;;;6.04;50.52;100412.31;4444297;32;35504;-82
2022/01/28 17:02:11;;;;;;;;;;;;;;;6.15;50.24;100417.75;4438985;32;33727;-85
2022/01/28 17:04:40;;;;;;;;;;;;;;;6.24;50.22;100417.13;4442560;32;34304;-86
2022/01/28 17:07:08;;;;;;;;;;;;;;;6.34;49.72;100438.53;4444683;32;35725;-85
2022/01/28 17:09:46;;;;;;;;;;;;;;;6.41;49.91;100435.34;4441798;32;34925;-87
2022/01/28 17:14:42;;;;;;;;;;;;;;;6.31;50.11;100441.34;4442408;32;34838;-86
2022/01/28 17:17:09;;;;;;;;;;;;;;;6.42;49.81;100457.37;4463550;32;34990;-84
2022/01/28 17:19:37;;;;;;;;;;;;;;;6.42;49.21;100465.28;4443611;32;35297;-85
2022/01/28 17:22:04;;;;;;;;;;;;;;;6.19;50.11;100461.53;4437983;32;33662;-84